sensor_id;sensor_type;location;lat;lon;timestamp;pressure;altitude;pressure_sealevel;temperature;humidity
5138;BME280;53959;53.626;11.410;2023-03-21T00:01:02;101059.13;;;7.20;80.04
5138;BME280;53959;53.626;11.410;2023-03-21T00:03:29;101064.44;;;7.11;80.29
5138;BME280;53959;53.626;11.410;2023-03-21T00:05:55;101063.59;;;7.12;80.64
5138;BME280;53959;53.626;11.410;2023-03-21T00:08:23;101053.88;;;7.17;80.52
5138;BME280;53959;53.626;11.410;2023-03-21T00:10:56;101050.31;;;7.21;80.45
5138;BME280;53959;53.626;11.410;2023-03-21T00:13:22;101045.13;;;7.07;80.90
5138;BME280;53959;53.626;11.410;2023-03-21T00:15:47;101040.66;;;7.14;80.89
5138;BME280;53959;53.626;11.410;2023-03-21T00:18:21;101048.59;;;7.11;80.91
5138;BME280;53959;53.626;11.410;2023-03-21T00:21:04;101045.97;;;7.15;80.86
5138;BME280;53959;53.626;11.410;2023-03-21T00:23:31;101052.19;;;7.02;81.16
5138;BME280;53959;53.626;11.410;2023-03-21T00:25:57;101040.66;;;7.17;81.11
5138;BME280;53959;53.626;11.410;2023-03-21T00:28:23;101033.63;;;7.16;81.01
5138;BME280;53959;53.626;11.410;2023-03-21T00:30:49;101040.72;;;7.06;81.29
5138;BME280;53959;53.626;11.410;2023-03-21T00:33:15;101035.44;;;7.04;81.29
5138;BME280;53959;53.626;11.410;2023-03-21T00:35:40;101032.78;;;7.08;81.31
5138;BME280;53959;53.626;11.410;2023-03-21T00:38:12;101035.44;;;7.08;81.59
5138;BME280;53959;53.626;11.410;2023-03-21T00:40:38;101028.41;;;7.05;81.25
5138;BME280;53959;53.626;11.410;2023-03-21T00:43:03;101025.69;;;7.16;81.34
5138;BME280;53959;53.626;11.410;2023-03-21T00:45:29;101031.03;;;7.05;81.33
5138;BME280;53959;53.626;11.410;2023-03-21T00:47:55;101034.53;;;7.09;81.43
5138;BME280;53959;53.626;11.410;2023-03-21T00:50:20;101023.13;;;7.03;81.53
5138;BME280;53959;53.626;11.410;2023-03-21T00:52:46;101024.84;;;7.09;81.59
5138;BME280;53959;53.626;11.410;2023-03-21T00:55:13;101029.25;;;7.15;81.31
5138;BME280;53959;53.626;11.410;2023-03-21T00:57:39;101023.06;;;7.14;81.33
5138;BME280;53959;53.626;11.410;2023-03-21T01:00:06;101022.16;;;7.17;81.46
5138;BME280;53959;53.626;11.410;2023-03-21T01:02:34;101021.34;;;7.09;81.46
5138;BME280;53959;53.626;11.410;2023-03-21T01:04:59;101016.00;;;7.16;81.41
5138;BME280;53959;53.626;11.410;2023-03-21T01:07:24;101016.03;;;7.13;81.26
5138;BME280;53959;53.626;11.410;2023-03-21T01:09:50;101014.22;;;7.18;81.37
5138;BME280;53959;53.626;11.410;2023-03-21T01:12:17;101004.56;;;7.14;81.24
5138;BME280;53959;53.626;11.410;2023-03-21T01:14:42;101006.41;;;7.04;81.60
5138;BME280;53959;53.626;11.410;2023-03-21T01:17:08;101003.75;;;7.04;81.69
5138;BME280;53959;53.626;11.410;2023-03-21T01:19:33;101013.41;;;7.09;81.78
5138;BME280;53959;53.626;11.410;2023-03-21T01:21:59;101009.84;;;7.16;81.62
5138;BME280;53959;53.626;11.410;2023-03-21T01:24:24;101006.41;;;7.04;81.79
5138;BME280;53959;53.626;11.410;2023-03-21T01:26:49;101010.78;;;7.07;81.92
5138;BME280;53959;53.626;11.410;2023-03-21T01:29:15;101009.03;;;7.04;81.92
5138;BME280;53959;53.626;11.410;2023-03-21T01:31:40;101010.84;;;6.98;82.10
5138;BME280;53959;53.626;11.410;2023-03-21T01:34:06;101012.56;;;6.99;82.16
5138;BME280;53959;53.626;11.410;2023-03-21T01:36:31;101013.44;;;6.99;82.50
5138;BME280;53959;53.626;11.410;2023-03-21T01:39:03;101016.09;;;7.01;82.30
5138;BME280;53959;53.626;11.410;2023-03-21T01:41:32;101011.63;;;7.15;81.93
5138;BME280;53959;53.626;11.410;2023-03-21T01:43:58;101013.38;;;7.10;82.06
5138;BME280;53959;53.626;11.410;2023-03-21T01:46:44;101013.38;;;7.15;82.04
5138;BME280;53959;53.626;11.410;2023-03-21T01:49:37;101007.28;;;7.03;82.03
5138;BME280;53959;53.626;11.410;2023-03-21T01:52:14;101009.06;;;7.01;82.19
5138;BME280;53959;53.626;11.410;2023-03-21T01:54:43;101001.97;;;7.08;82.24
5138;BME280;53959;53.626;11.410;2023-03-21T01:57:17;101004.66;;;7.02;82.30
5138;BME280;53959;53.626;11.410;2023-03-21T01:59:49;100997.66;;;6.96;82.57
5138;BME280;53959;53.626;11.410;2023-03-21T02:02:44;100995.81;;;7.06;82.73
5138;BME280;53959;53.626;11.410;2023-03-21T02:08:24;100986.16;;;7.03;82.57
5138;BME280;53959;53.626;11.410;2023-03-21T02:10:50;100985.28;;;6.98;82.71
5138;BME280;53959;53.626;11.410;2023-03-21T02:13:29;100988.00;;;6.92;82.79
5138;BME280;53959;53.626;11.410;2023-03-21T02:16:01;100992.38;;;6.93;82.99
5138;BME280;53959;53.626;11.410;2023-03-21T02:27:16;100983.50;;;7.08;82.79
5138;BME280;53959;53.626;11.410;2023-03-21T02:33:25;100977.38;;;6.98;82.73
5138;BME280;53959;53.626;11.410;2023-03-21T02:38:54;100976.47;;;6.99;82.82
5138;BME280;53959;53.626;11.410;2023-03-21T02:41:31;100973.06;;;6.82;83.09
5138;BME280;53959;53.626;11.410;2023-03-21T02:44:06;100971.25;;;6.90;83.39
5138;BME280;53959;53.626;11.410;2023-03-21T02:46:50;100965.97;;;6.96;83.16
5138;BME280;53959;53.626;11.410;2023-03-21T02:49:29;100964.25;;;6.89;83.21
5138;BME280;53959;53.626;11.410;2023-03-21T02:51:57;100965.97;;;6.90;83.54
5138;BME280;53959;53.626;11.410;2023-03-21T02:54:24;100968.56;;;6.98;83.34
5138;BME280;53959;53.626;11.410;2023-03-21T02:56:52;100966.81;;;6.95;83.34
5138;BME280;53959;53.626;11.410;2023-03-21T02:59:21;100972.13;;;6.91;83.34
5138;BME280;53959;53.626;11.410;2023-03-21T03:01:50;100962.41;;;6.97;83.47
5138;BME280;53959;53.626;11.410;2023-03-21T03:04:21;100965.06;;;6.97;83.29
5138;BME280;53959;53.626;11.410;2023-03-21T03:07:18;100962.41;;;7.03;83.45
5138;BME280;53959;53.626;11.410;2023-03-21T03:15:21;100966.00;;;6.84;83.77
5138;BME280;53959;53.626;11.410;2023-03-21T03:18:06;100968.69;;;6.81;84.21
5138;BME280;53959;53.626;11.410;2023-03-21T03:20:49;100960.72;;;6.87;84.44
5138;BME280;53959;53.626;11.410;2023-03-21T03:23:27;100963.34;;;6.90;84.58
5138;BME280;53959;53.626;11.410;2023-03-21T03:26:10;100966.91;;;6.85;84.68
5138;BME280;53959;53.626;11.410;2023-03-21T03:28:40;100959.88;;;6.85;84.55
5138;BME280;53959;53.626;11.410;2023-03-21T03:31:15;100963.38;;;6.82;84.53
5138;BME280;53959;53.626;11.410;2023-03-21T03:33:53;100964.28;;;6.80;84.80
5138;BME280;53959;53.626;11.410;2023-03-21T03:36:23;100962.50;;;6.80;85.33
5138;BME280;53959;53.626;11.410;2023-03-21T03:38:52;100954.59;;;6.85;85.22
5138;BME280;53959;53.626;11.410;2023-03-21T03:41:24;100964.28;;;6.77;85.41
5138;BME280;53959;53.626;11.410;2023-03-21T03:43:56;100953.75;;;6.74;85.75
5138;BME280;53959;53.626;11.410;2023-03-21T03:46:29;100956.38;;;6.75;85.91
5138;BME280;53959;53.626;11.410;2023-03-21T03:49:01;100954.63;;;6.74;85.92
5138;BME280;53959;53.626;11.410;2023-03-21T03:51:51;100956.41;;;6.71;86.16
5138;BME280;53959;53.626;11.410;2023-03-21T03:54:45;100950.19;;;6.82;85.82
5138;BME280;53959;53.626;11.410;2023-03-21T03:57:12;100946.66;;;6.85;85.80
5138;BME280;53959;53.626;11.410;2023-03-21T03:59:40;100944.03;;;6.85;85.61
5138;BME280;53959;53.626;11.410;2023-03-21T04:02:19;100943.97;;;6.88;85.67
5138;BME280;53959;53.626;11.410;2023-03-21T04:04:46;100945.78;;;6.85;85.86
5138;BME280;53959;53.626;11.410;2023-03-21T04:07:13;100945.78;;;6.85;85.95
5138;BME280;53959;53.626;11.410;2023-03-21T04:09:39;100940.56;;;6.72;86.12
5138;BME280;53959;53.626;11.410;2023-03-21T04:12:05;100945.00;;;6.64;86.34
5138;BME280;53959;53.626;11.410;2023-03-21T04:14:31;100941.50;;;6.64;86.38
5138;BME280;53959;53.626;11.410;2023-03-21T04:16:56;100944.06;;;6.76;86.52
5138;BME280;53959;53.626;11.410;2023-03-21T04:19:22;100935.22;;;6.83;86.57
5138;BME280;53959;53.626;11.410;2023-03-21T04:21:48;100948.50;;;6.71;86.49
5138;BME280;53959;53.626;11.410;2023-03-21T04:24:15;100943.22;;;6.68;86.79
5138;BME280;53959;53.626;11.410;2023-03-21T04:26:42;100944.94;;;6.75;86.72
5138;BME280;53959;53.626;11.410;2023-03-21T04:29:26;100941.44;;;6.77;86.52
5138;BME280;53959;53.626;11.410;2023-03-21T04:32:12;100942.22;;;6.87;86.55
5138;BME280;53959;53.626;11.410;2023-03-21T04:34:45;100940.53;;;6.75;86.71
5138;BME280;53959;53.626;11.410;2023-03-21T04:37:20;100930.88;;;6.73;86.71
5138;BME280;53959;53.626;11.410;2023-03-21T04:39:49;100934.38;;;6.78;86.71
5138;BME280;53959;53.626;11.410;2023-03-21T04:42:16;100930.84;;;6.82;86.58
5138;BME280;53959;53.626;11.410;2023-03-21T04:44:43;100934.38;;;6.76;86.61
5138;BME280;53959;53.626;11.410;2023-03-21T04:47:09;100935.22;;;6.83;86.54
5138;BME280;53959;53.626;11.410;2023-03-21T04:49:35;100930.00;;;6.74;86.50
5138;BME280;53959;53.626;11.410;2023-03-21T04:52:01;100939.66;;;6.81;86.45
5138;BME280;53959;53.626;11.410;2023-03-21T04:54:27;100929.94;;;6.86;86.37
5138;BME280;53959;53.626;11.410;2023-03-21T04:56:52;100932.59;;;6.77;86.49
5138;BME280;53959;53.626;11.410;2023-03-21T04:59:18;100924.69;;;6.77;86.40
5138;BME280;53959;53.626;11.410;2023-03-21T05:01:44;100928.16;;;6.84;86.32
5138;BME280;53959;53.626;11.410;2023-03-21T05:04:11;100930.84;;;6.79;86.36
5138;BME280;53959;53.626;11.410;2023-03-21T05:06:38;100931.72;;;6.81;86.50
5138;BME280;53959;53.626;11.410;2023-03-21T05:09:04;100930.84;;;6.79;86.51
5138;BME280;53959;53.626;11.410;2023-03-21T05:11:34;100928.16;;;6.87;86.37
5138;BME280;53959;53.626;11.410;2023-03-21T05:14:06;100926.41;;;6.89;86.45
5138;BME280;53959;53.626;11.410;2023-03-21T05:16:32;100928.22;;;6.79;86.63
5138;BME280;53959;53.626;11.410;2023-03-21T05:18:59;100931.72;;;6.76;86.67
5138;BME280;53959;53.626;11.410;2023-03-21T05:21:31;100929.97;;;6.81;86.57
5138;BME280;53959;53.626;11.410;2023-03-21T05:24:17;100937.88;;;6.80;86.77
5138;BME280;53959;53.626;11.410;2023-03-21T05:26:44;100928.16;;;6.84;86.70
5138;BME280;53959;53.626;11.410;2023-03-21T05:29:16;100934.38;;;6.78;86.76
5138;BME280;53959;53.626;11.410;2023-03-21T05:31:48;100927.31;;;6.77;86.65
5138;BME280;53959;53.626;11.410;2023-03-21T05:34:14;100937.91;;;6.75;86.78
5138;BME280;53959;53.626;11.410;2023-03-21T05:36:39;100929.97;;;6.77;86.79
5138;BME280;53959;53.626;11.410;2023-03-21T05:39:07;100940.47;;;6.88;86.91
5138;BME280;53959;53.626;11.410;2023-03-21T05:41:36;100934.34;;;6.79;86.75
5138;BME280;53959;53.626;11.410;2023-03-21T05:44:03;100931.72;;;6.81;86.84
5138;BME280;53959;53.626;11.410;2023-03-21T05:46:28;100930.81;;;6.84;86.86
5138;BME280;53959;53.626;11.410;2023-03-21T05:48:54;100936.03;;;6.94;86.98
5138;BME280;53959;53.626;11.410;2023-03-21T05:51:20;100930.75;;;6.96;86.84
5138;BME280;53959;53.626;11.410;2023-03-21T05:53:46;100926.34;;;6.96;86.69
5138;BME280;53959;53.626;11.410;2023-03-21T05:56:14;100927.22;;;6.95;86.69
5138;BME280;53959;53.626;11.410;2023-03-21T05:58:46;100926.31;;;6.98;86.80
5138;BME280;53959;53.626;11.410;2023-03-21T06:01:11;100928.97;;;6.98;86.74
5138;BME280;53959;53.626;11.410;2023-03-21T06:03:40;100937.84;;;6.89;86.84
5138;BME280;53959;53.626;11.410;2023-03-21T06:06:13;100930.75;;;6.91;86.65
5138;BME280;53959;53.626;11.410;2023-03-21T06:08:47;100921.06;;;6.92;86.90
5138;BME280;53959;53.626;11.410;2023-03-21T06:11:29;100922.84;;;6.91;86.96
5138;BME280;53959;53.626;11.410;2023-03-21T06:14:14;100917.50;;;6.99;86.59
5138;BME280;53959;53.626;11.410;2023-03-21T06:16:41;100922.81;;;6.94;87.11
5138;BME280;53959;53.626;11.410;2023-03-21T06:19:07;100928.09;;;6.94;87.18
5138;BME280;53959;53.626;11.410;2023-03-21T06:21:58;100928.94;;;7.01;87.06
5138;BME280;53959;53.626;11.410;2023-03-21T06:24:24;100929.78;;;7.08;87.02
5138;BME280;53959;53.626;11.410;2023-03-21T06:26:51;100927.09;;;7.11;86.95
5138;BME280;53959;53.626;11.410;2023-03-21T06:29:16;100928.06;;;7.03;87.07
5138;BME280;53959;53.626;11.410;2023-03-21T06:31:46;100935.94;;;7.06;86.98
5138;BME280;53959;53.626;11.410;2023-03-21T06:34:11;100926.22;;;7.13;87.18
5138;BME280;53959;53.626;11.410;2023-03-21T06:36:37;100928.97;;;6.95;87.37
5138;BME280;53959;53.626;11.410;2023-03-21T06:39:04;100931.56;;;7.07;87.68
5138;BME280;53959;53.626;11.410;2023-03-21T06:41:31;100932.44;;;7.08;87.37
5138;BME280;53959;53.626;11.410;2023-03-21T06:44:01;100934.09;;;7.18;87.37
5138;BME280;53959;53.626;11.410;2023-03-21T06:46:29;100935.91;;;7.13;87.45
5138;BME280;53959;53.626;11.410;2023-03-21T06:48:55;100932.44;;;7.04;87.49
5138;BME280;53959;53.626;11.410;2023-03-21T06:51:20;100936.75;;;7.19;87.38
5138;BME280;53959;53.626;11.410;2023-03-21T06:54:12;100935.72;;;7.36;87.41
5138;BME280;53959;53.626;11.410;2023-03-21T06:56:59;100939.22;;;7.39;87.21
5138;BME280;53959;53.626;11.410;2023-03-21T06:59:28;100938.44;;;7.25;86.96
5138;BME280;53959;53.626;11.410;2023-03-21T07:01:58;100932.31;;;7.26;87.26
5138;BME280;53959;53.626;11.410;2023-03-21T07:04:24;100927.84;;;7.28;87.43
5138;BME280;53959;53.626;11.410;2023-03-21T07:06:52;100929.63;;;7.27;87.20
5138;BME280;53959;53.626;11.410;2023-03-21T07:09:20;100926.06;;;7.35;86.88
5138;BME280;53959;53.626;11.410;2023-03-21T07:11:49;100931.25;;;7.41;86.83
5138;BME280;53959;53.626;11.410;2023-03-21T07:14:19;100933.03;;;7.40;87.01
5138;BME280;53959;53.626;11.410;2023-03-21T07:16:44;100933.94;;;7.36;86.96
5138;BME280;53959;53.626;11.410;2023-03-21T07:19:11;100937.50;;;7.35;86.93
5138;BME280;53959;53.626;11.410;2023-03-21T07:21:37;100935.69;;;7.42;87.01
5138;BME280;53959;53.626;11.410;2023-03-21T07:24:02;100941.00;;;7.37;87.04
5138;BME280;53959;53.626;11.410;2023-03-21T07:26:27;100939.19;;;7.42;86.74
5138;BME280;53959;53.626;11.410;2023-03-21T07:28:53;100939.19;;;7.41;86.69
5138;BME280;53959;53.626;11.410;2023-03-21T07:31:19;100941.75;;;7.51;86.83
5138;BME280;53959;53.626;11.410;2023-03-21T07:33:46;100939.94;;;7.55;86.58
5138;BME280;53959;53.626;11.410;2023-03-21T07:36:13;100938.22;;;7.54;86.45
5138;BME280;53959;53.626;11.410;2023-03-21T07:38:40;100931.13;;;7.58;86.38
5138;BME280;53959;53.626;11.410;2023-03-21T07:41:06;100936.31;;;7.67;86.10
5138;BME280;53959;53.626;11.410;2023-03-21T07:43:33;100928.41;;;7.65;86.20
5138;BME280;53959;53.626;11.410;2023-03-21T07:45:59;100936.31;;;7.68;86.31
5138;BME280;53959;53.626;11.410;2023-03-21T07:48:25;100934.66;;;7.57;86.05
5138;BME280;53959;53.626;11.410;2023-03-21T07:50:51;100938.00;;;7.74;86.12
5138;BME280;53959;53.626;11.410;2023-03-21T07:53:16;100929.22;;;7.70;85.95
5138;BME280;53959;53.626;11.410;2023-03-21T07:55:42;100933.53;;;7.82;85.64
5138;BME280;53959;53.626;11.410;2023-03-21T07:58:07;100934.66;;;7.58;85.61
5138;BME280;53959;53.626;11.410;2023-03-21T08:00:33;100943.38;;;7.68;85.76
5138;BME280;53959;53.626;11.410;2023-03-21T08:02:58;100931.84;;;7.75;85.65
5138;BME280;53959;53.626;11.410;2023-03-21T08:05:37;100935.28;;;7.82;85.61
5138;BME280;53959;53.626;11.410;2023-03-21T08:08:03;100931.75;;;7.84;85.51
5138;BME280;53959;53.626;11.410;2023-03-21T08:10:29;100926.50;;;7.81;85.46
5138;BME280;53959;53.626;11.410;2023-03-21T08:12:54;100927.31;;;7.88;85.34
5138;BME280;53959;53.626;11.410;2023-03-21T08:15:20;100923.72;;;7.93;85.12
5138;BME280;53959;53.626;11.410;2023-03-21T08:17:46;100930.78;;;7.93;85.41
5138;BME280;53959;53.626;11.410;2023-03-21T08:20:13;100927.22;;;7.95;85.20
5138;BME280;53959;53.626;11.410;2023-03-21T08:22:40;100929.94;;;7.89;85.42
5138;BME280;53959;53.626;11.410;2023-03-21T08:25:07;100933.34;;;8.00;85.17
5138;BME280;53959;53.626;11.410;2023-03-21T08:27:33;100935.97;;;8.00;85.03
5138;BME280;53959;53.626;11.410;2023-03-21T08:29:59;100935.16;;;7.95;84.87
5138;BME280;53959;53.626;11.410;2023-03-21T08:32:25;100930.59;;;8.08;84.95
5138;BME280;53959;53.626;11.410;2023-03-21T08:35:00;100931.56;;;8.02;84.68
5138;BME280;53959;53.626;11.410;2023-03-21T08:37:26;100927.06;;;8.11;84.51
5138;BME280;53959;53.626;11.410;2023-03-21T08:39:52;100931.38;;;8.18;84.93
5138;BME280;53959;53.626;11.410;2023-03-21T08:42:18;100925.09;;;8.26;84.27
5138;BME280;53959;53.626;11.410;2023-03-21T08:44:44;100926.03;;;8.24;84.49
5138;BME280;53959;53.626;11.410;2023-03-21T08:47:10;100924.22;;;8.26;84.12
5138;BME280;53959;53.626;11.410;2023-03-21T08:49:35;100922.50;;;8.22;84.07
5138;BME280;53959;53.626;11.410;2023-03-21T08:52:01;100927.00;;;8.15;84.13
5138;BME280;53959;53.626;11.410;2023-03-21T08:54:26;100924.38;;;8.14;84.25
5138;BME280;53959;53.626;11.410;2023-03-21T08:56:52;100932.19;;;8.23;84.49
5138;BME280;53959;53.626;11.410;2023-03-21T08:59:17;100929.41;;;8.34;84.39
5138;BME280;53959;53.626;11.410;2023-03-21T09:01:43;100936.47;;;8.36;84.24
5138;BME280;53959;53.626;11.410;2023-03-21T09:04:09;100926.09;;;8.18;84.00
5138;BME280;53959;53.626;11.410;2023-03-21T09:06:38;100929.44;;;8.31;84.56
5138;BME280;53959;53.626;11.410;2023-03-21T09:09:05;100915.28;;;8.38;84.22
5138;BME280;53959;53.626;11.410;2023-03-21T09:11:33;100917.88;;;8.42;84.20
5138;BME280;53959;53.626;11.410;2023-03-21T09:13:59;100913.34;;;8.52;83.97
5138;BME280;53959;53.626;11.410;2023-03-21T09:16:24;100916.81;;;8.56;83.73
5138;BME280;53959;53.626;11.410;2023-03-21T09:18:50;100923.88;;;8.57;83.51
5138;BME280;53959;53.626;11.410;2023-03-21T09:21:20;100925.72;;;8.51;83.68
5138;BME280;53959;53.626;11.410;2023-03-21T09:23:47;100923.78;;;8.63;83.46
5138;BME280;53959;53.626;11.410;2023-03-21T09:26:17;100919.50;;;8.52;83.51
5138;BME280;53959;53.626;11.410;2023-03-21T09:28:43;100920.34;;;8.56;83.37
5138;BME280;53959;53.626;11.410;2023-03-21T09:31:11;100915.81;;;8.66;83.20
5138;BME280;53959;53.626;11.410;2023-03-21T09:33:38;100919.44;;;8.59;83.11
5138;BME280;53959;53.626;11.410;2023-03-21T09:36:08;100912.97;;;8.78;83.22
5138;BME280;53959;53.626;11.410;2023-03-21T09:38:45;100912.03;;;8.82;83.32
5138;BME280;53959;53.626;11.410;2023-03-21T09:42:02;100921.84;;;8.77;83.00
5138;BME280;53959;53.626;11.410;2023-03-21T09:47:46;100906.88;;;8.71;83.26
5138;BME280;53959;53.626;11.410;2023-03-21T09:50:39;100904.41;;;8.59;83.68
5138;BME280;53959;53.626;11.410;2023-03-21T09:53:09;100903.41;;;8.69;83.24
5138;BME280;53959;53.626;11.410;2023-03-21T09:55:37;100906.94;;;8.70;83.52
5138;BME280;53959;53.626;11.410;2023-03-21T10:00:54;100890.81;;;8.84;83.38
5138;BME280;53959;53.626;11.410;2023-03-21T10:03:31;100898.78;;;8.82;82.89
5138;BME280;53959;53.626;11.410;2023-03-21T10:05:59;100896.03;;;8.90;82.68
5138;BME280;53959;53.626;11.410;2023-03-21T10:08:32;100896.03;;;8.90;83.01
5138;BME280;53959;53.626;11.410;2023-03-21T10:11:21;100904.13;;;8.79;82.81
5138;BME280;53959;53.626;11.410;2023-03-21T10:13:56;100900.50;;;8.86;83.00
5138;BME280;53959;53.626;11.410;2023-03-21T10:16:31;100901.44;;;8.82;83.13
5138;BME280;53959;53.626;11.410;2023-03-21T10:18:59;100893.25;;;8.97;82.95
5138;BME280;53959;53.626;11.410;2023-03-21T10:21:27;100892.50;;;8.89;82.75
5138;BME280;53959;53.626;11.410;2023-03-21T10:23:55;100893.25;;;8.97;82.86
5138;BME280;53959;53.626;11.410;2023-03-21T10:26:24;100900.38;;;8.95;82.78
5138;BME280;53959;53.626;11.410;2023-03-21T10:28:53;100891.59;;;8.92;82.71
5138;BME280;53959;53.626;11.410;2023-03-21T10:31:25;100883.81;;;8.80;83.17
5138;BME280;53959;53.626;11.410;2023-03-21T10:33:55;100879.34;;;8.83;83.54
5138;BME280;53959;53.626;11.410;2023-03-21T10:36:26;100895.13;;;8.92;83.12
5138;BME280;53959;53.626;11.410;2023-03-21T10:38:58;100894.06;;;9.04;83.27
5138;BME280;53959;53.626;11.410;2023-03-21T10:41:24;100894.16;;;8.96;83.23
5138;BME280;53959;53.626;11.410;2023-03-21T10:44:09;100887.09;;;8.97;83.27
5138;BME280;53959;53.626;11.410;2023-03-21T10:46:36;100882.88;;;8.85;83.45
5138;BME280;53959;53.626;11.410;2023-03-21T10:49:02;100879.47;;;8.77;84.17
5138;BME280;53959;53.626;11.410;2023-03-21T10:51:32;100875.03;;;8.76;83.99
5138;BME280;53959;53.626;11.410;2023-03-21T10:54:04;100882.81;;;8.88;84.07
5138;BME280;53959;53.626;11.410;2023-03-21T10:56:34;100880.00;;;8.97;83.81
5138;BME280;53959;53.626;11.410;2023-03-21T10:59:01;100879.81;;;9.11;83.19
5138;BME280;53959;53.626;11.410;2023-03-21T11:01:34;100878.28;;;8.96;83.54
5138;BME280;53959;53.626;11.410;2023-03-21T11:04:06;100873.69;;;9.08;83.08
5138;BME280;53959;53.626;11.410;2023-03-21T11:06:36;100862.91;;;9.18;82.87
5138;BME280;53959;53.626;11.410;2023-03-21T11:09:14;100862.91;;;9.17;82.78
5138;BME280;53959;53.626;11.410;2023-03-21T11:11:51;100856.75;;;9.16;82.56
5138;BME280;53959;53.626;11.410;2023-03-21T11:14:30;100868.59;;;8.95;83.03
5138;BME280;53959;53.626;11.410;2023-03-21T11:16:56;100857.91;;;9.00;83.26
5138;BME280;53959;53.626;11.410;2023-03-21T11:19:29;100857.47;;;9.26;83.04
5138;BME280;53959;53.626;11.410;2023-03-21T11:22:03;100856.63;;;9.24;83.05
5138;BME280;53959;53.626;11.410;2023-03-21T11:24:30;100854.50;;;9.43;82.79
5138;BME280;53959;53.626;11.410;2023-03-21T11:26:57;100856.16;;;9.50;82.41
5138;BME280;53959;53.626;11.410;2023-03-21T11:29:31;100852.72;;;9.43;82.00
5138;BME280;53959;53.626;11.410;2023-03-21T11:32:08;100851.72;;;9.51;82.03
5138;BME280;53959;53.626;11.410;2023-03-21T11:34:49;100851.72;;;9.51;82.32
5138;BME280;53959;53.626;11.410;2023-03-21T11:37:41;100848.00;;;9.61;81.85
5138;BME280;53959;53.626;11.410;2023-03-21T11:40:23;100840.72;;;9.72;81.45
5138;BME280;53959;53.626;11.410;2023-03-21T11:42:57;100848.19;;;9.52;81.08
5138;BME280;53959;53.626;11.410;2023-03-21T11:45:28;100846.22;;;9.63;81.34
5138;BME280;53959;53.626;11.410;2023-03-21T11:47:56;100839.50;;;9.42;81.06
5138;BME280;53959;53.626;11.410;2023-03-21T11:50:43;100833.94;;;9.57;81.48
5138;BME280;53959;53.626;11.410;2023-03-21T12:06:37;100816.94;;;9.66;81.52
5138;BME280;53959;53.626;11.410;2023-03-21T12:09:16;100808.88;;;9.72;81.85
5138;BME280;53959;53.626;11.410;2023-03-21T12:12:03;100810.69;;;9.70;81.44
5138;BME280;53959;53.626;11.410;2023-03-21T12:14:46;100810.78;;;9.67;81.62
5138;BME280;53959;53.626;11.410;2023-03-21T12:17:30;100807.06;;;9.76;81.81
5138;BME280;53959;53.626;11.410;2023-03-21T12:25:55;100799.34;;;9.63;83.43
5138;BME280;53959;53.626;11.410;2023-03-21T12:31:21;100805.63;;;9.58;84.39
5138;BME280;53959;53.626;11.410;2023-03-21T12:37:08;100797.88;;;9.47;84.88
5138;BME280;53959;53.626;11.410;2023-03-21T12:39:38;100794.44;;;9.42;85.76
5138;BME280;53959;53.626;11.410;2023-03-21T12:42:45;100790.25;;;9.30;85.53
5138;BME280;53959;53.626;11.410;2023-03-21T12:45:22;100790.25;;;9.29;85.65
5138;BME280;53959;53.626;11.410;2023-03-21T12:47:56;100783.81;;;9.43;85.75
5138;BME280;53959;53.626;11.410;2023-03-21T12:50:30;100772.47;;;9.35;85.78
5138;BME280;53959;53.626;11.410;2023-03-21T12:53:25;100780.38;;;9.38;85.68
5138;BME280;53959;53.626;11.410;2023-03-21T12:55:53;100776.91;;;9.35;85.66
5138;BME280;53959;53.626;11.410;2023-03-21T12:58:23;100766.16;;;9.42;85.85
5138;BME280;53959;53.626;11.410;2023-03-21T13:00:53;100765.06;;;9.53;85.19
5138;BME280;53959;53.626;11.410;2023-03-21T13:03:28;100761.22;;;9.69;85.08
5138;BME280;53959;53.626;11.410;2023-03-21T13:05:57;100762.34;;;9.57;84.78
5138;BME280;53959;53.626;11.410;2023-03-21T13:08:41;100750.47;;;9.75;85.04
5138;BME280;53959;53.626;11.410;2023-03-21T13:11:12;100751.34;;;9.74;84.46
5138;BME280;53959;53.626;11.410;2023-03-21T13:13:49;100750.16;;;9.89;84.40
5138;BME280;53959;53.626;11.410;2023-03-21T13:16:25;100742.53;;;9.73;84.84
5138;BME280;53959;53.626;11.410;2023-03-21T13:19:05;100739.16;;;9.67;84.50
5138;BME280;53959;53.626;11.410;2023-03-21T13:24:27;100739.97;;;9.70;84.05
5138;BME280;53959;53.626;11.410;2023-03-21T13:27:01;100733.44;;;9.85;84.36
5138;BME280;53959;53.626;11.410;2023-03-21T13:29:47;100725.00;;;9.66;83.71
5138;BME280;53959;53.626;11.410;2023-03-21T13:32:22;100735.59;;;9.66;83.83
5138;BME280;53959;53.626;11.410;2023-03-21T13:34:54;100723.31;;;9.62;84.00
5138;BME280;53959;53.626;11.410;2023-03-21T13:37:19;100723.41;;;9.59;83.86
5138;BME280;53959;53.626;11.410;2023-03-21T13:39:46;100723.25;;;9.67;84.06
5138;BME280;53959;53.626;11.410;2023-03-21T13:42:29;100723.31;;;9.62;84.39
5138;BME280;53959;53.626;11.410;2023-03-21T13:44:59;100715.53;;;9.55;84.93
5138;BME280;53959;53.626;11.410;2023-03-21T13:50:35;100717.41;;;9.49;85.59
5138;BME280;53959;53.626;11.410;2023-03-21T13:55:41;100710.22;;;9.55;86.23
5138;BME280;53959;53.626;11.410;2023-03-21T13:58:32;100710.22;;;9.55;86.57
5138;BME280;53959;53.626;11.410;2023-03-21T14:01:12;100709.41;;;9.53;86.50
5138;BME280;53959;53.626;11.410;2023-03-21T14:03:41;100702.50;;;9.44;86.63
5138;BME280;53959;53.626;11.410;2023-03-21T14:06:09;100698.97;;;9.43;86.77
5138;BME280;53959;53.626;11.410;2023-03-21T14:08:35;100699.75;;;9.48;86.60
5138;BME280;53959;53.626;11.410;2023-03-21T14:11:06;100700.75;;;9.43;87.05
5138;BME280;53959;53.626;11.410;2023-03-21T14:13:34;100699.75;;;9.48;87.23
5138;BME280;53959;53.626;11.410;2023-03-21T14:16:08;100692.78;;;9.44;86.75
5138;BME280;53959;53.626;11.410;2023-03-21T14:18:45;100683.97;;;9.42;87.39
5138;BME280;53959;53.626;11.410;2023-03-21T14:21:19;100672.59;;;9.37;87.31
5138;BME280;53959;53.626;11.410;2023-03-21T14:23:45;100676.19;;;9.35;87.54